Time;durP1;ratioP1;P1;durP2;ratioP2;P2;SDS_P1;SDS_P2;PMS_P1;PMS_P2;Temp;Humidity;BMP_temperature;BMP_pressure;BME280_temperature;BME280_humidity;BME280_pressure;Samples;Min_cycle;Max_cycle;Signal;HPM_P1;HPM_P2
2021/01/29 00:00:17;;;;;;;6.20;2.77;;;6.30;99.90;;;;;;5066932;28;20242;-46
2021/01/29 00:02:43;;;;;;;3.60;3.10;;;6.40;99.90;;;;;;5058145;28;20265;-51
2021/01/29 00:05:10;;;;;;;6.23;3.40;;;6.30;99.90;;;;;;5055379;28;20171;-48
2021/01/29 00:07:36;;;;;;;3.00;2.80;;;6.30;99.90;;;;;;5060406;28;20678;-46
2021/01/29 00:10:03;;;;;;;3.00;2.80;;;6.30;99.90;;;;;;5063357;28;20314;-50
2021/01/29 00:12:29;;;;;;;14.50;3.77;;;6.30;99.90;;;;;;5057260;28;20221;-49
2021/01/29 00:14:54;;;;;;;4.80;3.10;;;6.40;99.90;;;;;;5056940;28;20187;-48
2021/01/29 00:17:20;;;;;;;4.27;3.20;;;6.40;99.90;;;;;;5058637;28;20190;-51
2021/01/29 00:19:45;;;;;;;7.07;3.57;;;6.40;99.90;;;;;;5062759;28;20283;-48
2021/01/29 00:22:11;;;;;;;3.00;2.80;;;6.40;99.90;;;;;;5055939;28;20186;-49
2021/01/29 00:24:37;;;;;;;4.53;2.80;;;6.40;99.90;;;;;;5056038;28;20183;-49
2021/01/29 00:27:04;;;;;;;5.10;2.70;;;6.40;99.90;;;;;;5055202;28;20179;-48
2021/01/29 00:29:30;;;;;;;3.70;2.77;;;6.30;99.90;;;;;;5054728;28;20253;-50
2021/01/29 00:31:56;;;;;;;3.30;3.10;;;6.30;99.90;;;;;;5065189;28;20183;-47
2021/01/29 00:34:21;;;;;;;3.07;2.87;;;6.30;99.90;;;;;;5054823;28;20209;-52
2021/01/29 00:36:47;;;;;;;2.97;2.77;;;6.30;99.90;;;;;;5055491;28;20639;-50
2021/01/29 00:39:12;;;;;;;4.00;2.87;;;6.40;99.90;;;;;;5066560;28;20784;-50
2021/01/29 00:41:38;;;;;;;3.17;2.90;;;6.40;99.90;;;;;;5066355;28;20566;-46
2021/01/29 00:44:04;;;;;;;2.63;2.43;;;6.40;99.90;;;;;;5054989;28;20186;-46
2021/01/29 00:46:29;;;;;;;3.03;2.83;;;6.40;99.90;;;;;;5054622;28;20182;-52
2021/01/29 00:48:55;;;;;;;2.80;2.60;;;6.40;99.90;;;;;;5055137;28;20199;-50
2021/01/29 00:51:20;;;;;;;3.13;2.93;;;6.40;99.90;;;;;;5068736;28;20201;-46
2021/01/29 00:53:46;;;;;;;3.00;2.80;;;6.40;99.90;;;;;;5055061;28;20217;-52
2021/01/29 00:56:12;;;;;;;2.60;2.40;;;6.50;99.90;;;;;;5054302;28;20258;-48
2021/01/29 00:58:37;;;;;;;2.73;2.53;;;6.60;99.90;;;;;;5055024;28;20221;-49
2021/01/29 01:01:04;;;;;;;2.60;2.40;;;6.60;99.90;;;;;;5054507;28;20191;-49
2021/01/29 01:03:29;;;;;;;2.67;2.47;;;6.60;99.90;;;;;;5055566;28;20254;-45
2021/01/29 01:05:55;;;;;;;2.90;2.70;;;6.50;99.90;;;;;;5054203;28;20691;-46
2021/01/29 01:08:21;;;;;;;3.03;2.77;;;6.50;99.90;;;;;;5053696;28;20208;-52
2021/01/29 01:10:47;;;;;;;2.73;2.53;;;6.50;99.90;;;;;;5070721;28;20608;-52
2021/01/29 01:13:13;;;;;;;2.63;2.10;;;6.50;99.90;;;;;;5073323;28;20295;-50
2021/01/29 01:15:39;;;;;;;2.53;2.33;;;6.50;99.90;;;;;;5073828;28;20174;-46
2021/01/29 01:18:05;;;;;;;2.40;2.20;;;6.50;99.90;;;;;;5064860;28;20183;-48
2021/01/29 01:20:31;;;;;;;2.10;2.00;;;6.50;99.90;;;;;;5053345;28;20203;-50
2021/01/29 01:22:57;;;;;;;2.40;2.20;;;6.50;99.90;;;;;;5055288;28;20209;-51
2021/01/29 01:25:23;;;;;;;1.83;1.73;;;6.50;99.90;;;;;;5074149;28;20182;-53
2021/01/29 01:27:49;;;;;;;2.27;2.13;;;6.50;99.90;;;;;;5068706;28;20631;-46
2021/01/29 01:30:19;;;;;;;2.20;2.00;;;6.60;99.90;;;;;;5053617;28;20237;-48
2021/01/29 01:32:45;;;;;;;2.20;2.00;;;6.80;99.90;;;;;;5072782;28;20716;-45
2021/01/29 01:35:11;;;;;;;2.47;2.27;;;6.90;99.90;;;;;;5054418;28;20211;-46
2021/01/29 01:37:37;;;;;;;2.20;2.00;;;6.90;99.90;;;;;;5054537;28;20232;-46
2021/01/29 01:40:05;;;;;;;2.70;2.50;;;7.00;99.90;;;;;;5055854;28;20207;-49
2021/01/29 01:42:30;;;;;;;2.27;2.10;;;7.00;99.90;;;;;;5054847;28;20221;-49
2021/01/29 01:44:56;;;;;;;2.60;2.40;;;7.00;99.90;;;;;;5054335;28;20187;-49
2021/01/29 01:47:30;;;;;;;5.60;2.80;;;7.00;99.90;;;;;;5054756;28;20179;-48
2021/01/29 01:50:04;;;;;;;3.37;2.90;;;7.00;99.90;;;;;;5053523;28;20585;-46
2021/01/29 01:52:37;;;;;;;3.07;2.83;;;7.00;99.90;;;;;;5069592;28;20210;-50
2021/01/29 01:55:10;;;;;;;12.00;3.53;;;7.20;99.90;;;;;;5055305;28;20183;-50
2021/01/29 01:57:38;;;;;;;5.43;3.37;;;7.20;99.90;;;;;;5059489;28;20570;-48
2021/01/29 02:00:08;;;;;;;2.80;2.47;;;7.20;99.90;;;;;;5067629;28;20543;-49
2021/01/29 02:02:36;;;;;;;3.20;2.90;;;7.30;99.90;;;;;;5070624;28;20267;-48
2021/01/29 02:05:09;;;;;;;3.33;3.03;;;7.50;99.90;;;;;;5055172;28;20186;-49
2021/01/29 02:07:37;;;;;;;2.70;2.50;;;7.60;99.90;;;;;;5054098;28;20649;-46
2021/01/29 02:10:04;;;;;;;2.60;2.40;;;7.50;99.90;;;;;;5060404;28;20226;-47
2021/01/29 02:12:29;;;;;;;3.50;2.87;;;7.40;99.90;;;;;;5054894;28;20191;-53
2021/01/29 02:14:55;;;;;;;5.60;3.20;;;7.30;99.90;;;;;;5053004;28;20183;-49
2021/01/29 02:17:36;;;;;;;2.23;2.07;;;7.20;99.90;;;;;;5054422;28;20587;-46
2021/01/29 02:20:20;;;;;;;2.57;2.37;;;7.10;99.90;;;;;;5057279;28;20314;-49
2021/01/29 02:23:12;;;;;;;2.63;2.43;;;7.20;99.90;;;;;;5058275;28;20270;-54
2021/01/29 02:26:19;;;;;;;13.70;3.47;;;7.50;99.90;;;;;;5043349;28;20197;-50
2021/01/29 02:29:22;;;;;;;3.10;2.80;;;7.50;99.90;;;;;;5044164;28;22104;-51
2021/01/29 02:32:24;;;;;;;4.80;3.10;;;7.50;99.90;;;;;;5058208;28;20186;-48
2021/01/29 02:35:11;;;;;;;3.67;3.27;;;7.50;99.90;;;;;;5058047;28;20248;-49
2021/01/29 02:38:01;;;;;;;3.40;3.10;;;7.60;99.90;;;;;;5057781;28;20252;-49
2021/01/29 02:40:54;;;;;;;3.40;3.10;;;7.60;99.90;;;;;;5061793;28;20324;-46
2021/01/29 02:43:19;;;;;;;3.23;2.93;;;7.50;99.90;;;;;;5058308;28;20245;-46
2021/01/29 02:46:06;;;;;;;5.87;3.73;;;7.40;99.90;;;;;;5056132;28;20585;-49
2021/01/29 02:49:23;;;;;;;6.97;3.63;;;7.40;99.90;;;;;;5057007;28;20195;-50
2021/01/29 02:52:04;;;;;;;3.80;3.17;;;7.40;99.90;;;;;;5052838;28;20263;-51
2021/01/29 02:54:34;;;;;;;4.27;3.77;;;7.40;99.90;;;;;;5065533;28;20286;-49
2021/01/29 02:57:15;;;;;;;4.90;3.00;;;7.50;99.90;;;;;;5057863;28;20198;-46
2021/01/29 02:59:48;;;;;;;24.30;4.83;;;7.50;99.90;;;;;;5060307;28;20206;-49
2021/01/29 03:02:23;;;;;;;36.00;6.20;;;7.40;99.90;;;;;;5056663;28;20182;-46
2021/01/29 03:05:08;;;;;;;19.53;5.37;;;7.30;99.90;;;;;;5056661;28;20204;-53
2021/01/29 03:08:03;;;;;;;9.50;5.10;;;7.20;99.90;;;;;;5056759;28;20210;-50
2021/01/29 03:11:02;;;;;;;4.90;4.40;;;7.00;99.90;;;;;;5061884;28;20212;-47
2021/01/29 03:13:44;;;;;;;4.70;4.20;;;7.00;99.90;;;;;;5044342;28;20210;-46
2021/01/29 03:16:16;;;;;;;5.20;4.27;;;7.20;99.90;;;;;;5076130;28;20595;-49
2021/01/29 03:18:50;;;;;;;4.67;4.27;;;7.30;99.90;;;;;;5074939;28;20222;-53
2021/01/29 03:21:21;;;;;;;5.50;4.70;;;7.50;99.90;;;;;;5056043;28;20175;-46
2021/01/29 03:23:55;;;;;;;6.83;5.13;;;7.50;99.90;;;;;;5056789;28;20622;-49
2021/01/29 03:26:34;;;;;;;20.33;9.00;;;7.60;99.90;;;;;;5055833;28;20161;-50
2021/01/29 03:29:08;;;;;;;6.30;5.70;;;7.60;99.90;;;;;;5055412;28;20199;-49
2021/01/29 03:31:36;;;;;;;5.73;5.13;;;7.70;99.90;;;;;;5057147;28;20195;-47
2021/01/29 03:34:34;;;;;;;5.17;4.67;;;7.80;99.90;;;;;;5066535;28;20260;-48
2021/01/29 03:37:14;;;;;;;6.03;5.43;;;7.90;99.90;;;;;;5076315;28;20265;-50
2021/01/29 03:39:40;;;;;;;5.63;5.13;;;7.90;99.90;;;;;;5059421;28;20223;-50
2021/01/29 03:42:51;;;;;;;6.03;5.43;;;7.80;99.90;;;;;;5076533;28;20558;-51
2021/01/29 03:45:16;;;;;;;5.60;5.10;;;7.90;99.90;;;;;;5066847;28;20198;-46
2021/01/29 03:47:54;;;;;;;10.90;7.17;;;7.90;99.90;;;;;;5075451;28;20182;-46
2021/01/29 03:50:41;;;;;;;5.70;5.20;;;7.90;99.90;;;;;;5063272;28;20237;-50
2021/01/29 03:53:45;;;;;;;5.57;5.03;;;8.00;99.90;;;;;;5072646;28;20201;-50
2021/01/29 03:56:44;;;;;;;6.10;5.50;;;8.10;99.90;;;;;;5054908;28;20194;-49
2021/01/29 03:59:39;;;;;;;7.37;6.23;;;8.10;99.90;;;;;;5058793;28;20222;-50
2021/01/29 04:02:15;;;;;;;5.80;5.30;;;8.10;99.90;;;;;;5075475;28;20194;-48
2021/01/29 04:04:58;;;;;;;5.20;4.70;;;8.20;99.90;;;;;;5076620;28;20223;-46
2021/01/29 04:07:35;;;;;;;5.67;5.03;;;8.20;99.90;;;;;;5074613;28;20182;-50
2021/01/29 04:10:09;;;;;;;5.50;5.00;;;8.00;99.90;;;;;;5066566;28;20723;-47
2021/01/29 04:12:47;;;;;;;8.20;6.10;;;8.00;99.90;;;;;;5076491;28;20231;-50
2021/01/29 04:15:23;;;;;;;6.20;5.60;;;7.90;99.90;;;;;;5074733;28;20174;-53
2021/01/29 04:18:01;;;;;;;8.53;6.27;;;7.90;99.90;;;;;;5069984;28;20634;-55
2021/01/29 04:20:45;;;;;;;5.50;5.00;;;7.90;99.90;;;;;;5067917;28;20229;-47
2021/01/29 04:23:26;;;;;;;7.10;6.40;;;8.00;99.90;;;;;;5055437;28;20178;-48
2021/01/29 04:25:58;;;;;;;6.17;5.57;;;7.90;99.90;;;;;;5055293;28;20175;-46
2021/01/29 04:28:26;;;;;;;8.10;6.83;;;7.90;99.90;;;;;;5069017;28;20268;-47
2021/01/29 04:30:54;;;;;;;8.23;6.67;;;7.80;99.90;;;;;;5075336;28;20210;-48
2021/01/29 04:33:25;;;;;;;6.20;5.60;;;7.80;99.90;;;;;;5075402;28;20201;-46
2021/01/29 04:35:52;;;;;;;5.10;4.60;;;7.80;99.90;;;;;;5074585;28;20185;-46
2021/01/29 04:38:41;;;;;;;4.80;4.40;;;7.80;99.90;;;;;;5075073;28;20191;-46
2021/01/29 04:41:16;;;;;;;5.27;4.77;;;7.90;99.90;;;;;;5074874;28;20162;-46
2021/01/29 04:43:57;;;;;;;4.43;4.03;;;7.90;99.90;;;;;;5074752;28;20672;-48
2021/01/29 04:47:10;;;;;;;4.10;3.80;;;7.90;99.90;;;;;;5075838;28;20190;-46
2021/01/29 04:49:56;;;;;;;4.87;4.40;;;7.70;99.90;;;;;;5028274;28;20558;-47
2021/01/29 04:52:45;;;;;;;4.00;3.50;;;7.60;99.90;;;;;;5074414;28;20170;-52
2021/01/29 04:55:41;;;;;;;4.30;3.90;;;7.60;99.90;;;;;;5054994;28;20189;-46
2021/01/29 04:58:18;;;;;;;4.80;4.40;;;7.60;99.90;;;;;;5054807;28;20630;-47
2021/01/29 05:00:58;;;;;;;3.97;3.60;;;7.60;99.90;;;;;;5054219;28;20254;-46
2021/01/29 05:03:32;;;;;;;4.10;3.70;;;7.60;99.90;;;;;;5054608;28;20183;-49
2021/01/29 05:06:09;;;;;;;4.00;3.70;;;7.70;99.90;;;;;;5054453;28;20193;-46
2021/01/29 05:09:16;;;;;;;5.13;3.80;;;7.70;99.90;;;;;;5054684;28;20190;-52
2021/01/29 05:11:59;;;;;;;3.70;3.40;;;7.90;99.90;;;;;;5054365;28;20178;-50
2021/01/29 05:14:52;;;;;;;4.13;3.43;;;8.00;99.90;;;;;;5054938;28;20210;-46
2021/01/29 05:17:36;;;;;;;4.20;3.80;;;8.20;99.90;;;;;;5054939;28;20171;-46
2021/01/29 05:20:16;;;;;;;6.40;5.80;;;8.30;99.90;;;;;;5053928;28;20606;-47
2021/01/29 05:22:47;;;;;;;4.80;4.30;;;8.40;99.90;;;;;;5054487;28;20262;-46
2021/01/29 05:25:37;;;;;;;6.13;5.63;;;8.40;99.90;;;;;;5054296;28;20250;-48
2021/01/29 05:28:39;;;;;;;5.97;5.37;;;8.30;99.90;;;;;;5054266;28;20183;-45
2021/01/29 05:31:23;;;;;;;8.97;8.17;;;8.30;99.90;;;;;;5054545;28;20173;-48
2021/01/29 05:34:23;;;;;;;4.67;4.27;;;8.30;99.90;;;;;;5052443;28;20241;-46
2021/01/29 05:37:04;;;;;;;14.20;12.00;;;8.30;99.90;;;;;;5054067;28;20159;-52
2021/01/29 05:39:42;;;;;;;4.80;4.30;;;8.20;99.90;;;;;;5054257;28;20195;-48
2021/01/29 05:42:44;;;;;;;6.30;5.70;;;8.20;99.90;;;;;;5054761;28;20205;-50
2021/01/29 05:45:49;;;;;;;4.27;3.80;;;8.10;99.90;;;;;;5054179;28;20179;-46
2021/01/29 05:48:53;;;;;;;5.17;4.47;;;8.00;99.90;;;;;;5054803;28;20199;-48
2021/01/29 05:51:49;;;;;;;4.13;3.77;;;8.00;99.90;;;;;;5051541;28;20199;-46
2021/01/29 05:54:36;;;;;;;4.57;4.17;;;7.90;99.90;;;;;;5069400;28;20256;-46
2021/01/29 05:57:30;;;;;;;4.43;4.03;;;7.80;99.90;;;;;;5080045;28;20150;-49
2021/01/29 06:00:36;;;;;;;4.50;4.10;;;7.70;99.90;;;;;;5058686;28;20211;-52
2021/01/29 06:03:29;;;;;;;5.07;4.57;;;7.70;99.90;;;;;;5058167;28;20265;-49
2021/01/29 06:06:32;;;;;;;5.90;4.93;;;7.60;99.90;;;;;;5056678;28;20163;-49
2021/01/29 06:09:24;;;;;;;4.77;4.37;;;7.70;99.90;;;;;;5059123;28;20222;-51
2021/01/29 06:12:11;;;;;;;4.40;4.00;;;7.70;99.90;;;;;;5057854;28;20195;-47
2021/01/29 06:14:55;;;;;;;5.10;4.60;;;7.70;99.90;;;;;;5059349;28;20658;-48
2021/01/29 06:17:57;;;;;;;4.47;4.07;;;7.60;99.90;;;;;;5057973;28;20183;-50
2021/01/29 06:20:50;;;;;;;5.57;4.47;;;7.50;99.90;;;;;;5057673;28;20225;-46
2021/01/29 06:23:16;;;;;;;4.73;4.30;;;7.30;99.90;;;;;;5057917;28;20328;-47
2021/01/29 06:25:48;;;;;;;4.97;4.37;;;7.30;99.90;;;;;;5057572;28;20201;-46
2021/01/29 06:28:47;;;;;;;4.33;3.93;;;7.40;99.90;;;;;;5060597;28;20665;-47
2021/01/29 06:31:37;;;;;;;6.17;4.40;;;7.40;99.90;;;;;;5071371;28;20183;-49
2021/01/29 06:34:27;;;;;;;4.60;4.20;;;7.40;99.90;;;;;;5068268;28;20241;-48
2021/01/29 06:37:07;;;;;;;4.80;4.30;;;7.40;99.90;;;;;;5071471;28;20186;-48
2021/01/29 06:39:56;;;;;;;4.23;3.80;;;7.50;99.90;;;;;;5074152;28;20236;-46
2021/01/29 06:42:34;;;;;;;3.67;3.33;;;7.50;99.90;;;;;;5074208;28;20209;-46
2021/01/29 06:45:18;;;;;;;3.33;3.03;;;7.60;99.90;;;;;;5074492;28;20216;-46
2021/01/29 06:48:05;;;;;;;3.80;3.00;;;7.70;99.90;;;;;;5076066;28;20537;-49
2021/01/29 06:51:02;;;;;;;3.00;2.80;;;7.60;99.90;;;;;;5075969;28;20190;-51
2021/01/29 06:53:55;;;;;;;3.03;2.73;;;7.60;99.90;;;;;;5074162;28;20206;-46
2021/01/29 06:56:51;;;;;;;2.93;2.63;;;7.50;99.90;;;;;;5057448;28;20176;-47
2021/01/29 06:59:30;;;;;;;2.47;2.27;;;7.50;99.90;;;;;;5028625;28;20257;-47
2021/01/29 07:02:41;;;;;;;3.30;3.00;;;7.60;99.90;;;;;;5057912;28;20182;-50
2021/01/29 07:05:46;;;;;;;3.40;3.03;;;7.60;99.90;;;;;;5057451;28;20225;-50
2021/01/29 07:08:34;;;;;;;2.80;2.60;;;7.70;99.90;;;;;;5057309;28;20175;-50
2021/01/29 07:11:28;;;;;;;4.23;3.60;;;7.90;99.90;;;;;;5057501;28;20214;-46
2021/01/29 07:14:31;;;;;;;3.43;3.07;;;7.80;99.90;;;;;;5056886;28;20264;-50
2021/01/29 07:17:08;;;;;;;4.40;2.57;;;7.80;99.90;;;;;;5065091;28;20186;-46
2021/01/29 07:19:47;;;;;;;3.70;2.80;;;7.70;99.90;;;;;;5072445;28;20205;-47
2021/01/29 07:22:24;;;;;;;3.23;2.90;;;7.70;99.90;;;;;;5071046;28;20181;-46
2021/01/29 07:25:19;;;;;;;3.13;2.93;;;7.60;99.90;;;;;;5074004;28;20181;-46
2021/01/29 07:28:12;;;;;;;3.37;2.67;;;7.60;99.90;;;;;;5077454;28;20653;-51
2021/01/29 07:31:08;;;;;;;2.43;2.23;;;7.60;99.90;;;;;;5075856;28;20235;-48
2021/01/29 07:33:59;;;;;;;3.60;3.10;;;7.60;99.90;;;;;;5075709;28;20213;-46
2021/01/29 07:36:28;;;;;;;2.97;2.60;;;7.50;99.90;;;;;;5071777;28;20587;-46
2021/01/29 07:39:31;;;;;;;3.60;2.87;;;7.50;99.90;;;;;;5071818;28;20226;-52
2021/01/29 07:42:22;;;;;;;3.30;3.00;;;7.50;99.90;;;;;;5071121;28;20538;-46
2021/01/29 07:45:02;;;;;;;2.23;2.00;;;7.60;99.90;;;;;;5061138;28;20175;-50
2021/01/29 07:47:52;;;;;;;8.10;5.57;;;7.60;99.90;;;;;;5072614;28;20229;-47
2021/01/29 07:50:36;;;;;;;34.70;25.47;;;7.60;99.90;;;;;;5071353;28;20207;-47
2021/01/29 07:53:11;;;;;;;3.20;1.93;;;7.60;99.90;;;;;;5062272;28;20551;-46
2021/01/29 07:56:15;;;;;;;1.97;1.80;;;7.50;99.90;;;;;;5055361;28;20181;-46
2021/01/29 07:59:12;;;;;;;2.17;1.60;;;7.40;99.90;;;;;;5068016;28;20213;-48
2021/01/29 08:01:50;;;;;;;1.73;1.63;;;7.30;99.90;;;;;;5059066;28;20204;-50
2021/01/29 08:04:50;;;;;;;1.60;1.50;;;7.30;99.90;;;;;;5056529;28;20204;-48
2021/01/29 08:07:36;;;;;;;2.23;1.50;;;7.30;99.90;;;;;;5025385;28;20203;-47
2021/01/29 08:10:05;;;;;;;1.90;1.70;;;7.40;99.90;;;;;;5071337;28;20249;-51
2021/01/29 08:12:34;;;;;;;1.10;1.00;;;7.40;99.90;;;;;;5066133;28;20555;-48
2021/01/29 08:15:33;;;;;;;1.20;1.10;;;7.60;99.90;;;;;;5056151;28;20175;-47
2021/01/29 08:18:01;;;;;;;1.80;1.20;;;7.60;99.90;;;;;;5070846;28;20231;-51
2021/01/29 08:20:49;;;;;;;1.13;1.00;;;7.60;99.90;;;;;;5076049;28;20162;-47
2021/01/29 08:23:53;;;;;;;0.80;0.80;;;7.70;99.90;;;;;;5052973;28;20291;-51
2021/01/29 08:26:59;;;;;;;0.83;0.83;;;7.70;99.90;;;;;;5057232;28;20250;-52
2021/01/29 08:29:46;;;;;;;0.80;0.80;;;7.80;99.90;;;;;;5051682;28;20236;-49
2021/01/29 08:32:35;;;;;;;1.63;1.10;;;8.00;99.90;;;;;;5041799;28;20186;-48
2021/01/29 08:35:10;;;;;;;1.30;1.00;;;8.20;99.90;;;;;;5046982;28;20183;-52
2021/01/29 08:38:10;;;;;;;1.43;1.10;;;8.30;99.90;;;;;;5033248;28;20179;-55
2021/01/29 08:41:00;;;;;;;0.90;0.90;;;8.40;99.90;;;;;;5027934;28;20190;-48
2021/01/29 08:43:44;;;;;;;1.20;1.10;;;8.40;99.90;;;;;;5052494;28;20643;-53
2021/01/29 08:46:33;;;;;;;1.65;1.52;;;8.50;99.90;;;;;;5029867;28;20431;-48
2021/01/29 08:49:06;;;;;;;2.47;2.27;;;8.60;99.90;;;;;;5030665;28;20212;-51
2021/01/29 08:51:49;;;;;;;1.90;1.80;;;8.70;99.90;;;;;;5053345;28;20160;-47
2021/01/29 08:54:54;;;;;;;1.80;1.70;;;8.60;99.90;;;;;;5047218;28;20351;-47
2021/01/29 08:57:47;;;;;;;4.87;4.23;;;8.50;99.90;;;;;;5031028;28;20258;-49
2021/01/29 09:00:29;;;;;;;3.80;3.40;;;8.40;99.90;;;;;;5054238;28;20900;-47
2021/01/29 09:03:16;;;;;;;2.97;2.77;;;8.40;99.90;;;;;;5062590;28;20170;-52
2021/01/29 09:05:46;;;;;;;1.90;1.80;;;8.40;99.90;;;;;;5058286;28;20204;-53
2021/01/29 09:08:17;;;;;;;2.20;1.80;;;8.30;99.90;;;;;;5062135;28;20175;-51
2021/01/29 09:10:50;;;;;;;2.37;2.17;;;8.30;99.90;;;;;;5064470;28;20198;-45
2021/01/29 09:13:22;;;;;;;2.00;1.43;;;8.30;99.90;;;;;;5067883;28;20201;-49
2021/01/29 09:15:54;;;;;;;1.83;1.73;;;8.20;99.90;;;;;;5063769;28;20168;-46
2021/01/29 09:18:43;;;;;;;2.33;1.60;;;8.20;99.90;;;;;;5072683;28;20250;-53
2021/01/29 09:21:18;;;;;;;1.23;1.13;;;8.10;99.90;;;;;;5062663;28;20496;-49
2021/01/29 09:24:16;;;;;;;1.60;1.50;;;8.10;99.90;;;;;;5065167;28;20189;-47
2021/01/29 09:27:19;;;;;;;1.47;1.10;;;7.90;99.90;;;;;;5054458;28;20211;-49
2021/01/29 09:29:55;;;;;;;2.20;2.00;;;7.80;99.90;;;;;;5065045;28;20603;-50
2021/01/29 09:32:55;;;;;;;1.70;1.60;;;7.80;99.90;;;;;;5066541;28;20266;-53
2021/01/29 09:35:47;;;;;;;1.90;1.70;;;7.70;99.90;;;;;;5065963;28;20190;-54
2021/01/29 09:38:17;;;;;;;1.70;1.60;;;7.70;99.90;;;;;;5066563;28;20225;-49
2021/01/29 09:41:04;;;;;;;1.80;1.70;;;7.70;99.90;;;;;;5064383;28;20223;-53
2021/01/29 09:43:45;;;;;;;2.30;1.80;;;7.70;99.90;;;;;;5061455;28;20188;-54
2021/01/29 09:46:11;;;;;;;2.13;1.90;;;7.60;99.90;;;;;;5068135;28;20213;-46
2021/01/29 09:48:41;;;;;;;2.50;2.00;;;7.70;99.90;;;;;;5070834;28;20210;-54
2021/01/29 09:51:36;;;;;;;2.30;2.07;;;7.60;99.90;;;;;;5056103;28;20178;-53
2021/01/29 09:54:26;;;;;;;2.37;2.10;;;7.50;99.90;;;;;;5063073;28;20459;-55
2021/01/29 09:57:00;;;;;;;2.97;2.20;;;7.40;99.90;;;;;;5060467;28;20289;-50
2021/01/29 09:59:47;;;;;;;2.10;1.90;;;7.40;99.90;;;;;;5059572;28;20188;-50
2021/01/29 10:02:34;;;;;;;2.00;1.67;;;7.40;99.90;;;;;;5062655;28;20206;-48
2021/01/29 10:05:42;;;;;;;2.40;1.53;;;7.40;99.90;;;;;;5058869;28;20181;-48
2021/01/29 10:08:16;;;;;;;2.00;1.53;;;7.40;99.90;;;;;;5011126;28;20699;-50
2021/01/29 10:11:00;;;;;;;2.87;1.23;;;7.40;99.90;;;;;;5053126;28;20211;-46
2021/01/29 10:13:55;;;;;;;1.90;1.40;;;7.50;99.90;;;;;;5056575;28;20210;-48
2021/01/29 10:16:34;;;;;;;1.97;1.00;;;7.40;99.90;;;;;;5072712;28;20538;-48
2021/01/29 10:19:18;;;;;;;0.97;0.70;;;7.50;99.90;;;;;;5058776;28;20198;-49
2021/01/29 10:21:58;;;;;;;0.93;0.77;;;7.40;99.90;;;;;;5053172;28;20183;-47
2021/01/29 10:24:47;;;;;;;0.73;0.67;;;7.40;99.90;;;;;;5074808;28;20189;-52
2021/01/29 10:27:21;;;;;;;2.00;0.77;;;7.50;99.90;;;;;;5072037;28;20187;-51
2021/01/29 10:29:59;;;;;;;0.50;0.50;;;7.60;99.90;;;;;;5059267;28;20217;-47
2021/01/29 10:32:29;;;;;;;0.60;0.60;;;7.60;99.90;;;;;;5053419;28;20655;-47
2021/01/29 10:35:17;;;;;;;1.33;1.13;;;7.60;99.90;;;;;;5056573;28;20199;-53
2021/01/29 10:38:09;;;;;;;0.87;0.60;;;7.60;99.90;;;;;;5082599;28;20715;-47
2021/01/29 10:40:39;;;;;;;0.57;0.57;;;7.70;99.90;;;;;;5046739;28;20200;-54
2021/01/29 10:43:18;;;;;;;0.53;0.53;;;7.70;99.90;;;;;;5066249;28;20179;-53
2021/01/29 10:45:57;;;;;;;1.13;0.60;;;7.80;99.90;;;;;;5075751;28;20245;-49
2021/01/29 10:48:48;;;;;;;0.60;0.60;;;7.80;99.90;;;;;;5078680;28;20213;-52
2021/01/29 10:51:34;;;;;;;0.77;0.60;;;7.80;99.90;;;;;;5067870;28;20274;-48
2021/01/29 10:54:02;;;;;;;0.60;0.60;;;7.90;99.90;;;;;;5067732;28;20212;-48
2021/01/29 10:56:55;;;;;;;0.40;0.40;;;8.00;99.90;;;;;;5077397;28;20255;-53
2021/01/29 10:59:34;;;;;;;0.40;0.40;;;8.00;99.90;;;;;;5055639;28;20268;-51
2021/01/29 11:02:04;;;;;;;1.13;0.50;;;8.10;99.90;;;;;;5078028;28;20178;-48
2021/01/29 11:04:37;;;;;;;0.40;0.40;;;8.20;99.90;;;;;;5066747;28;20193;-55
2021/01/29 11:07:22;;;;;;;0.50;0.50;;;8.20;99.90;;;;;;5076233;28;20210;-53
2021/01/29 11:10:14;;;;;;;0.40;0.40;;;8.20;99.90;;;;;;5058553;28;20225;-49
2021/01/29 11:12:50;;;;;;;0.83;0.50;;;8.30;99.90;;;;;;5055052;28;20278;-53
2021/01/29 11:15:38;;;;;;;0.30;0.30;;;8.20;99.90;;;;;;5057963;28;20170;-48
2021/01/29 11:18:37;;;;;;;0.73;0.40;;;8.30;99.90;;;;;;5069455;28;20218;-50
2021/01/29 11:21:11;;;;;;;0.67;0.40;;;8.30;99.90;;;;;;5070582;28;20197;-50
2021/01/29 11:23:44;;;;;;;0.30;0.30;;;8.30;99.90;;;;;;5067459;28;20183;-51
2021/01/29 11:26:27;;;;;;;1.13;0.40;;;8.20;99.90;;;;;;5078655;28;20186;-50
2021/01/29 11:29:07;;;;;;;1.40;0.60;;;8.20;99.90;;;;;;5063508;28;20234;-54
2021/01/29 11:31:46;;;;;;;0.60;0.50;;;8.30;99.90;;;;;;5068961;28;20182;-49
2021/01/29 11:34:28;;;;;;;0.60;0.60;;;8.40;99.90;;;;;;5073942;28;20335;-49
2021/01/29 11:37:01;;;;;;;0.83;0.60;;;8.50;99.90;;;;;;5075859;28;20181;-52
2021/01/29 11:39:45;;;;;;;0.90;0.30;;;8.60;99.90;;;;;;5071757;28;20218;-53
2021/01/29 11:42:35;;;;;;;0.30;0.30;;;9.10;99.90;;;;;;5065336;28;20171;-55
2021/01/29 11:45:07;;;;;;;0.40;0.40;;;9.70;99.90;;;;;;5074942;28;20545;-51
2021/01/29 11:47:46;;;;;;;2.67;0.50;;;9.80;99.90;;;;;;5075224;28;20194;-47
2021/01/29 11:50:22;;;;;;;1.33;0.50;;;9.50;99.90;;;;;;5066309;28;20225;-52
2021/01/29 11:53:01;;;;;;;0.40;0.40;;;9.30;99.90;;;;;;5068900;28;20684;-54
2021/01/29 11:55:32;;;;;;;0.77;0.40;;;9.20;99.90;;;;;;5067847;28;20261;-51
2021/01/29 11:58:12;;;;;;;0.50;0.47;;;9.10;99.90;;;;;;5056361;28;20285;-52
2021/01/29 12:00:55;;;;;;;0.37;0.30;;;9.70;99.90;;;;;;5061105;28;20559;-50
2021/01/29 12:03:40;;;;;;;0.30;0.30;;;10.60;99.90;;;;;;5057029;28;20288;-49
2021/01/29 12:06:19;;;;;;;0.87;0.40;;;10.50;99.90;;;;;;5056119;28;20589;-55
2021/01/29 12:08:55;;;;;;;0.47;0.43;;;10.70;99.90;;;;;;5055887;28;20206;-55
2021/01/29 12:11:50;;;;;;;0.40;0.40;;;10.80;99.90;;;;;;5056018;28;20186;-52
2021/01/29 12:14:34;;;;;;;1.13;0.40;;;10.70;99.90;;;;;;5056969;28;20206;-54
2021/01/29 12:17:04;;;;;;;0.90;0.90;;;10.70;99.90;;;;;;5068873;28;20195;-52
2021/01/29 12:19:38;;;;;;;0.37;0.37;;;11.20;99.90;;;;;;5072187;28;20730;-52
2021/01/29 12:22:32;;;;;;;0.40;0.40;;;11.30;99.90;;;;;;5073520;28;20178;-46
2021/01/29 12:25:40;;;;;;;1.83;0.60;;;11.10;99.90;;;;;;5075216;28;20653;-51
2021/01/29 12:28:20;;;;;;;0.37;0.37;;;10.80;99.90;;;;;;5074125;28;20273;-51
2021/01/29 12:31:01;;;;;;;0.47;0.47;;;10.30;99.90;;;;;;5074475;28;20180;-50
2021/01/29 12:33:29;;;;;;;0.40;0.40;;;10.00;99.90;;;;;;5075530;28;20203;-48
2021/01/29 12:36:01;;;;;;;1.13;0.47;;;10.00;99.90;;;;;;5075757;28;20236;-50
2021/01/29 12:38:30;;;;;;;0.70;0.40;;;10.10;99.90;;;;;;5075572;28;20221;-48
2021/01/29 12:41:23;;;;;;;0.87;0.57;;;10.50;99.90;;;;;;5078088;28;20183;-51
2021/01/29 12:44:19;;;;;;;0.87;0.47;;;11.50;99.90;;;;;;5072256;28;20180;-50
2021/01/29 12:46:50;;;;;;;0.40;0.40;;;12.10;99.90;;;;;;5078467;28;20184;-47
2021/01/29 12:49:38;;;;;;;0.83;0.37;;;12.40;99.90;;;;;;5074232;28;20208;-48
2021/01/29 12:52:21;;;;;;;0.30;0.30;;;12.40;99.90;;;;;;5073184;28;20185;-47
2021/01/29 12:54:59;;;;;;;0.50;0.40;;;12.30;99.90;;;;;;5074218;28;20199;-45
2021/01/29 12:57:30;;;;;;;0.83;0.30;;;11.90;99.90;;;;;;5073788;28;20271;-50
2021/01/29 13:00:19;;;;;;;0.53;0.50;;;11.80;99.90;;;;;;5073155;28;20207;-45
2021/01/29 13:03:05;;;;;;;0.57;0.30;;;12.20;99.90;;;;;;5073953;28;20261;-45
2021/01/29 13:06:07;;;;;;;0.30;0.30;;;12.70;99.90;;;;;;5073728;28;20185;-49
2021/01/29 13:09:01;;;;;;;0.40;0.37;;;13.20;99.90;;;;;;5074113;28;20194;-44
2021/01/29 13:11:52;;;;;;;0.30;0.30;;;13.50;99.90;;;;;;5070109;28;20206;-46
2021/01/29 13:14:33;;;;;;;0.30;0.30;;;13.50;99.90;;;;;;5058175;28;20777;-53
2021/01/29 13:17:16;;;;;;;0.63;0.47;;;13.60;99.90;;;;;;5073463;28;20205;-49
2021/01/29 13:19:45;;;;;;;1.07;0.50;;;13.50;99.90;;;;;;5074239;28;20214;-47
2021/01/29 13:22:20;;;;;;;0.63;0.30;;;13.40;99.90;;;;;;5074348;28;20175;-46
2021/01/29 13:25:14;;;;;;;0.83;0.47;;;13.40;99.90;;;;;;5073635;28;20197;-49
2021/01/29 13:27:54;;;;;;;1.40;0.50;;;13.60;99.90;;;;;;5072289;28;20247;-49
2021/01/29 13:30:39;;;;;;;1.70;0.40;;;13.90;99.90;;;;;;5056417;28;20218;-49
2021/01/29 13:33:27;;;;;;;1.90;0.70;;;13.80;99.90;;;;;;5064867;28;20629;-56
2021/01/29 13:36:30;;;;;;;0.50;0.30;;;13.80;99.90;;;;;;5061830;28;20178;-52
2021/01/29 13:39:10;;;;;;;1.10;0.40;;;13.80;99.90;;;;;;5027650;28;20218;-56
2021/01/29 13:41:49;;;;;;;0.93;0.47;;;13.20;99.90;;;;;;5029606;28;20180;-49
2021/01/29 13:44:33;;;;;;;4.97;0.87;;;12.50;99.90;;;;;;5022660;28;20190;-53
2021/01/29 13:46:59;;;;;;;1.80;0.70;;;12.20;99.90;;;;;;5025223;28;20351;-50
2021/01/29 13:49:51;;;;;;;1.57;0.83;;;11.90;99.90;;;;;;5009919;28;20348;-50
2021/01/29 13:52:24;;;;;;;0.90;0.60;;;11.60;99.90;;;;;;5031500;28;20187;-50
2021/01/29 13:54:51;;;;;;;1.70;0.63;;;11.40;99.90;;;;;;5039572;28;20227;-53
2021/01/29 13:57:25;;;;;;;1.57;0.70;;;11.30;99.90;;;;;;5034978;28;20203;-51
2021/01/29 13:59:58;;;;;;;0.50;0.43;;;11.20;99.90;;;;;;5053259;28;20244;-56
2021/01/29 14:02:41;;;;;;;1.97;0.47;;;11.10;99.90;;;;;;5050685;28;20217;-49
2021/01/29 14:05:23;;;;;;;1.07;0.70;;;10.90;99.90;;;;;;5044535;28;20302;-49
2021/01/29 14:07:50;;;;;;;2.77;0.73;;;10.60;99.90;;;;;;5048971;28;20609;-52